sensor_id;sensor_type;location;lat;lon;timestamp;P1;durP1;ratioP1;P2;durP2;ratioP2
78728;SDS011;68252;44.944;20.218;2024-03-17T00:00:21;52.70;;;32.85;;
78728;SDS011;68252;44.944;20.218;2024-03-17T00:02:47;51.08;;;32.38;;
78728;SDS011;68252;44.944;20.218;2024-03-17T00:05:14;57.42;;;33.92;;
78728;SDS011;68252;44.944;20.218;2024-03-17T00:07:40;52.60;;;33.33;;
78728;SDS011;68252;44.944;20.218;2024-03-17T00:10:06;53.40;;;31.75;;
78728;SDS011;68252;44.944;20.218;2024-03-17T00:12:33;56.15;;;34.22;;
78728;SDS011;68252;44.944;20.218;2024-03-17T00:14:59;55.95;;;33.33;;
78728;SDS011;68252;44.944;20.218;2024-03-17T00:17:26;58.85;;;35.67;;
78728;SDS011;68252;44.944;20.218;2024-03-17T00:19:52;61.75;;;35.97;;
78728;SDS011;68252;44.944;20.218;2024-03-17T00:22:18;57.53;;;34.42;;
78728;SDS011;68252;44.944;20.218;2024-03-17T00:24:45;52.25;;;33.85;;
78728;SDS011;68252;44.944;20.218;2024-03-17T00:27:11;55.65;;;33.67;;
78728;SDS011;68252;44.944;20.218;2024-03-17T00:29:38;55.28;;;34.17;;
78728;SDS011;68252;44.944;20.218;2024-03-17T00:32:05;54.35;;;33.33;;
78728;SDS011;68252;44.944;20.218;2024-03-17T00:34:31;54.70;;;34.55;;
78728;SDS011;68252;44.944;20.218;2024-03-17T00:36:57;56.03;;;35.80;;
78728;SDS011;68252;44.944;20.218;2024-03-17T00:39:24;56.63;;;35.30;;
78728;SDS011;68252;44.944;20.218;2024-03-17T00:41:50;61.55;;;36.92;;
78728;SDS011;68252;44.944;20.218;2024-03-17T00:44:16;59.55;;;36.65;;
78728;SDS011;68252;44.944;20.218;2024-03-17T00:46:43;60.88;;;36.83;;
78728;SDS011;68252;44.944;20.218;2024-03-17T00:49:09;56.20;;;36.78;;
78728;SDS011;68252;44.944;20.218;2024-03-17T00:51:35;60.53;;;36.55;;
78728;SDS011;68252;44.944;20.218;2024-03-17T00:54:02;58.63;;;37.15;;
78728;SDS011;68252;44.944;20.218;2024-03-17T00:56:28;65.53;;;37.55;;
78728;SDS011;68252;44.944;20.218;2024-03-17T00:58:54;58.42;;;36.95;;
78728;SDS011;68252;44.944;20.218;2024-03-17T01:01:20;59.78;;;37.53;;
78728;SDS011;68252;44.944;20.218;2024-03-17T01:03:46;58.63;;;37.45;;
78728;SDS011;68252;44.944;20.218;2024-03-17T01:06:13;60.00;;;37.88;;
78728;SDS011;68252;44.944;20.218;2024-03-17T01:08:39;59.33;;;36.75;;
78728;SDS011;68252;44.944;20.218;2024-03-17T01:11:05;65.95;;;37.45;;
78728;SDS011;68252;44.944;20.218;2024-03-17T01:13:34;60.97;;;39.08;;
78728;SDS011;68252;44.944;20.218;2024-03-17T01:16:02;61.72;;;36.50;;
78728;SDS011;68252;44.944;20.218;2024-03-17T01:18:29;61.13;;;37.65;;
78728;SDS011;68252;44.944;20.218;2024-03-17T01:20:55;61.88;;;37.33;;
78728;SDS011;68252;44.944;20.218;2024-03-17T01:23:21;63.15;;;37.85;;
78728;SDS011;68252;44.944;20.218;2024-03-17T01:25:47;68.60;;;37.70;;
78728;SDS011;68252;44.944;20.218;2024-03-17T01:28:13;59.17;;;36.78;;
78728;SDS011;68252;44.944;20.218;2024-03-17T01:30:39;63.63;;;37.63;;
78728;SDS011;68252;44.944;20.218;2024-03-17T01:33:06;68.85;;;38.97;;
78728;SDS011;68252;44.944;20.218;2024-03-17T01:35:32;62.42;;;39.55;;
78728;SDS011;68252;44.944;20.218;2024-03-17T01:37:59;58.05;;;36.90;;
78728;SDS011;68252;44.944;20.218;2024-03-17T01:40:25;61.60;;;36.88;;
78728;SDS011;68252;44.944;20.218;2024-03-17T01:42:51;60.40;;;37.63;;
78728;SDS011;68252;44.944;20.218;2024-03-17T01:47:43;59.13;;;38.10;;
78728;SDS011;68252;44.944;20.218;2024-03-17T01:50:09;59.58;;;37.83;;
78728;SDS011;68252;44.944;20.218;2024-03-17T01:52:38;56.73;;;36.73;;
78728;SDS011;68252;44.944;20.218;2024-03-17T01:55:04;63.05;;;39.25;;
78728;SDS011;68252;44.944;20.218;2024-03-17T01:57:31;62.90;;;39.45;;
78728;SDS011;68252;44.944;20.218;2024-03-17T01:59:57;65.18;;;39.30;;
78728;SDS011;68252;44.944;20.218;2024-03-17T02:02:23;64.90;;;38.88;;
78728;SDS011;68252;44.944;20.218;2024-03-17T02:04:49;64.00;;;41.08;;
78728;SDS011;68252;44.944;20.218;2024-03-17T02:07:15;66.63;;;42.42;;
78728;SDS011;68252;44.944;20.218;2024-03-17T02:09:41;68.75;;;43.22;;
78728;SDS011;68252;44.944;20.218;2024-03-17T02:12:08;66.43;;;43.67;;
78728;SDS011;68252;44.944;20.218;2024-03-17T02:14:36;62.60;;;40.70;;
78728;SDS011;68252;44.944;20.218;2024-03-17T02:17:02;67.65;;;41.95;;
78728;SDS011;68252;44.944;20.218;2024-03-17T02:19:29;66.38;;;42.75;;
78728;SDS011;68252;44.944;20.218;2024-03-17T02:21:55;73.65;;;44.42;;
78728;SDS011;68252;44.944;20.218;2024-03-17T02:24:21;75.82;;;44.58;;
78728;SDS011;68252;44.944;20.218;2024-03-17T02:26:47;81.32;;;45.75;;
78728;SDS011;68252;44.944;20.218;2024-03-17T02:29:13;72.28;;;43.70;;
78728;SDS011;68252;44.944;20.218;2024-03-17T02:31:39;68.72;;;44.40;;
78728;SDS011;68252;44.944;20.218;2024-03-17T02:34:06;74.00;;;45.78;;
78728;SDS011;68252;44.944;20.218;2024-03-17T02:36:32;80.93;;;46.67;;
78728;SDS011;68252;44.944;20.218;2024-03-17T02:38:58;99.13;;;53.00;;
78728;SDS011;68252;44.944;20.218;2024-03-17T02:41:43;78.88;;;49.80;;
78728;SDS011;68252;44.944;20.218;2024-03-17T02:44:11;70.55;;;44.97;;
78728;SDS011;68252;44.944;20.218;2024-03-17T02:46:38;78.30;;;46.03;;
78728;SDS011;68252;44.944;20.218;2024-03-17T02:49:04;72.95;;;45.33;;
78728;SDS011;68252;44.944;20.218;2024-03-17T02:51:32;72.72;;;44.75;;
78728;SDS011;68252;44.944;20.218;2024-03-17T02:53:59;79.35;;;43.63;;
78728;SDS011;68252;44.944;20.218;2024-03-17T02:56:25;69.22;;;43.42;;
78728;SDS011;68252;44.944;20.218;2024-03-17T02:58:51;75.03;;;43.72;;
78728;SDS011;68252;44.944;20.218;2024-03-17T03:01:17;84.05;;;50.75;;
78728;SDS011;68252;44.944;20.218;2024-03-17T03:03:44;75.10;;;47.25;;
78728;SDS011;68252;44.944;20.218;2024-03-17T03:06:10;80.50;;;47.67;;
78728;SDS011;68252;44.944;20.218;2024-03-17T03:08:38;79.90;;;48.10;;
78728;SDS011;68252;44.944;20.218;2024-03-17T03:11:06;81.18;;;48.60;;
78728;SDS011;68252;44.944;20.218;2024-03-17T03:13:36;77.00;;;46.55;;
78728;SDS011;68252;44.944;20.218;2024-03-17T03:16:02;77.30;;;45.55;;
78728;SDS011;68252;44.944;20.218;2024-03-17T03:18:28;77.82;;;48.13;;
78728;SDS011;68252;44.944;20.218;2024-03-17T03:20:54;82.10;;;48.58;;
78728;SDS011;68252;44.944;20.218;2024-03-17T03:23:20;76.10;;;47.75;;
78728;SDS011;68252;44.944;20.218;2024-03-17T03:25:46;79.18;;;47.65;;
78728;SDS011;68252;44.944;20.218;2024-03-17T03:28:13;75.03;;;46.65;;
78728;SDS011;68252;44.944;20.218;2024-03-17T03:30:39;73.53;;;45.58;;
78728;SDS011;68252;44.944;20.218;2024-03-17T03:33:05;76.53;;;48.10;;
78728;SDS011;68252;44.944;20.218;2024-03-17T03:35:32;75.82;;;46.38;;
78728;SDS011;68252;44.944;20.218;2024-03-17T03:37:58;73.60;;;47.15;;
78728;SDS011;68252;44.944;20.218;2024-03-17T03:40:26;76.53;;;45.50;;
78728;SDS011;68252;44.944;20.218;2024-03-17T03:42:52;76.03;;;47.90;;
78728;SDS011;68252;44.944;20.218;2024-03-17T03:45:18;75.13;;;45.60;;
78728;SDS011;68252;44.944;20.218;2024-03-17T03:47:45;72.18;;;44.58;;
78728;SDS011;68252;44.944;20.218;2024-03-17T03:50:14;77.57;;;45.92;;
78728;SDS011;68252;44.944;20.218;2024-03-17T03:52:40;74.60;;;45.78;;
78728;SDS011;68252;44.944;20.218;2024-03-17T03:55:07;70.82;;;43.38;;
78728;SDS011;68252;44.944;20.218;2024-03-17T03:57:36;74.63;;;45.07;;
78728;SDS011;68252;44.944;20.218;2024-03-17T04:00:05;69.05;;;42.65;;
78728;SDS011;68252;44.944;20.218;2024-03-17T04:02:44;65.70;;;42.72;;
78728;SDS011;68252;44.944;20.218;2024-03-17T04:05:10;78.60;;;44.85;;
78728;SDS011;68252;44.944;20.218;2024-03-17T04:07:36;79.13;;;44.03;;
78728;SDS011;68252;44.944;20.218;2024-03-17T04:10:03;145.35;;;59.83;;
78728;SDS011;68252;44.944;20.218;2024-03-17T04:12:30;82.03;;;45.13;;
78728;SDS011;68252;44.944;20.218;2024-03-17T04:14:59;67.57;;;42.88;;
78728;SDS011;68252;44.944;20.218;2024-03-17T04:17:25;71.10;;;41.35;;
78728;SDS011;68252;44.944;20.218;2024-03-17T04:19:52;70.72;;;43.35;;
78728;SDS011;68252;44.944;20.218;2024-03-17T04:22:19;71.00;;;42.90;;
78728;SDS011;68252;44.944;20.218;2024-03-17T04:24:47;63.33;;;39.53;;
78728;SDS011;68252;44.944;20.218;2024-03-17T04:27:18;75.63;;;43.95;;
78728;SDS011;68252;44.944;20.218;2024-03-17T04:29:46;62.45;;;40.42;;
78728;SDS011;68252;44.944;20.218;2024-03-17T04:32:13;78.00;;;44.03;;
78728;SDS011;68252;44.944;20.218;2024-03-17T04:34:39;69.43;;;42.58;;
78728;SDS011;68252;44.944;20.218;2024-03-17T04:37:05;104.00;;;48.15;;
78728;SDS011;68252;44.944;20.218;2024-03-17T04:39:31;72.15;;;43.78;;
78728;SDS011;68252;44.944;20.218;2024-03-17T04:41:57;77.90;;;45.78;;
78728;SDS011;68252;44.944;20.218;2024-03-17T04:44:25;69.80;;;43.63;;
78728;SDS011;68252;44.944;20.218;2024-03-17T04:46:51;70.18;;;42.88;;
78728;SDS011;68252;44.944;20.218;2024-03-17T04:49:17;70.85;;;42.13;;
78728;SDS011;68252;44.944;20.218;2024-03-17T04:51:43;67.90;;;43.17;;
78728;SDS011;68252;44.944;20.218;2024-03-17T04:54:09;67.47;;;40.50;;
78728;SDS011;68252;44.944;20.218;2024-03-17T04:56:35;66.28;;;41.08;;
78728;SDS011;68252;44.944;20.218;2024-03-17T04:59:01;71.00;;;43.35;;
78728;SDS011;68252;44.944;20.218;2024-03-17T05:01:27;69.25;;;42.33;;
78728;SDS011;68252;44.944;20.218;2024-03-17T05:03:56;64.22;;;42.42;;
78728;SDS011;68252;44.944;20.218;2024-03-17T05:06:22;62.92;;;42.13;;
78728;SDS011;68252;44.944;20.218;2024-03-17T05:08:48;74.80;;;46.33;;
78728;SDS011;68252;44.944;20.218;2024-03-17T05:11:14;75.18;;;42.90;;
78728;SDS011;68252;44.944;20.218;2024-03-17T05:13:41;73.40;;;43.03;;
78728;SDS011;68252;44.944;20.218;2024-03-17T05:16:07;67.15;;;42.92;;
78728;SDS011;68252;44.944;20.218;2024-03-17T05:18:33;75.97;;;45.88;;
78728;SDS011;68252;44.944;20.218;2024-03-17T05:21:00;208.25;;;96.25;;
78728;SDS011;68252;44.944;20.218;2024-03-17T05:23:30;164.25;;;54.63;;
78728;SDS011;68252;44.944;20.218;2024-03-17T05:25:56;86.43;;;49.55;;
78728;SDS011;68252;44.944;20.218;2024-03-17T05:28:23;84.28;;;53.20;;
78728;SDS011;68252;44.944;20.218;2024-03-17T05:30:49;69.57;;;43.15;;
78728;SDS011;68252;44.944;20.218;2024-03-17T05:33:19;71.00;;;46.95;;
78728;SDS011;68252;44.944;20.218;2024-03-17T05:35:50;144.82;;;54.92;;
78728;SDS011;68252;44.944;20.218;2024-03-17T05:38:19;75.93;;;43.55;;
78728;SDS011;68252;44.944;20.218;2024-03-17T05:40:58;118.35;;;63.35;;
78728;SDS011;68252;44.944;20.218;2024-03-17T05:43:25;65.30;;;40.53;;
78728;SDS011;68252;44.944;20.218;2024-03-17T05:45:54;89.85;;;49.03;;
78728;SDS011;68252;44.944;20.218;2024-03-17T05:48:22;66.15;;;41.05;;
78728;SDS011;68252;44.944;20.218;2024-03-17T05:50:49;79.60;;;51.50;;
78728;SDS011;68252;44.944;20.218;2024-03-17T05:53:16;70.22;;;45.50;;
78728;SDS011;68252;44.944;20.218;2024-03-17T05:55:43;68.15;;;42.85;;
78728;SDS011;68252;44.944;20.218;2024-03-17T05:58:10;70.93;;;42.80;;
78728;SDS011;68252;44.944;20.218;2024-03-17T06:00:37;65.20;;;40.15;;
78728;SDS011;68252;44.944;20.218;2024-03-17T06:03:03;61.58;;;39.30;;
78728;SDS011;68252;44.944;20.218;2024-03-17T06:05:37;55.83;;;35.42;;
78728;SDS011;68252;44.944;20.218;2024-03-17T06:08:03;57.55;;;34.33;;
78728;SDS011;68252;44.944;20.218;2024-03-17T06:10:31;59.15;;;34.92;;
78728;SDS011;68252;44.944;20.218;2024-03-17T06:12:58;53.97;;;32.67;;
78728;SDS011;68252;44.944;20.218;2024-03-17T06:15:24;61.35;;;35.63;;
78728;SDS011;68252;44.944;20.218;2024-03-17T06:17:51;63.17;;;37.33;;
78728;SDS011;68252;44.944;20.218;2024-03-17T06:20:20;52.58;;;33.08;;
78728;SDS011;68252;44.944;20.218;2024-03-17T06:22:47;51.00;;;27.13;;
78728;SDS011;68252;44.944;20.218;2024-03-17T06:25:13;30.67;;;19.88;;
78728;SDS011;68252;44.944;20.218;2024-03-17T06:27:39;31.55;;;19.98;;
78728;SDS011;68252;44.944;20.218;2024-03-17T06:30:05;29.92;;;18.88;;
78728;SDS011;68252;44.944;20.218;2024-03-17T06:32:32;39.72;;;19.90;;
78728;SDS011;68252;44.944;20.218;2024-03-17T06:34:59;28.95;;;17.55;;
78728;SDS011;68252;44.944;20.218;2024-03-17T06:37:25;26.50;;;17.35;;
78728;SDS011;68252;44.944;20.218;2024-03-17T06:39:51;23.60;;;15.38;;
78728;SDS011;68252;44.944;20.218;2024-03-17T06:42:17;25.38;;;15.52;;
78728;SDS011;68252;44.944;20.218;2024-03-17T06:44:43;22.60;;;15.25;;
78728;SDS011;68252;44.944;20.218;2024-03-17T06:47:09;24.88;;;14.63;;
78728;SDS011;68252;44.944;20.218;2024-03-17T06:49:35;18.33;;;12.13;;
78728;SDS011;68252;44.944;20.218;2024-03-17T06:52:01;15.85;;;10.68;;
78728;SDS011;68252;44.944;20.218;2024-03-17T06:54:28;15.27;;;9.70;;
78728;SDS011;68252;44.944;20.218;2024-03-17T06:56:54;12.02;;;7.78;;
78728;SDS011;68252;44.944;20.218;2024-03-17T06:59:20;10.75;;;6.50;;
78728;SDS011;68252;44.944;20.218;2024-03-17T07:01:46;13.52;;;6.82;;
78728;SDS011;68252;44.944;20.218;2024-03-17T07:04:12;12.77;;;5.50;;
78728;SDS011;68252;44.944;20.218;2024-03-17T07:06:38;6.22;;;4.13;;
78728;SDS011;68252;44.944;20.218;2024-03-17T07:09:04;6.20;;;3.58;;
78728;SDS011;68252;44.944;20.218;2024-03-17T07:11:30;7.05;;;3.60;;
78728;SDS011;68252;44.944;20.218;2024-03-17T07:13:56;7.57;;;3.55;;
78728;SDS011;68252;44.944;20.218;2024-03-17T07:16:23;6.78;;;4.13;;
78728;SDS011;68252;44.944;20.218;2024-03-17T07:18:52;6.30;;;4.00;;
78728;SDS011;68252;44.944;20.218;2024-03-17T07:21:18;6.10;;;4.05;;
78728;SDS011;68252;44.944;20.218;2024-03-17T07:23:44;6.90;;;4.20;;
78728;SDS011;68252;44.944;20.218;2024-03-17T07:26:11;11.07;;;4.50;;
78728;SDS011;68252;44.944;20.218;2024-03-17T07:28:39;10.88;;;3.90;;
78728;SDS011;68252;44.944;20.218;2024-03-17T07:31:06;11.38;;;4.07;;
78728;SDS011;68252;44.944;20.218;2024-03-17T07:33:33;8.10;;;4.60;;
78728;SDS011;68252;44.944;20.218;2024-03-17T07:35:59;9.25;;;4.40;;
78728;SDS011;68252;44.944;20.218;2024-03-17T07:38:26;6.05;;;3.95;;
78728;SDS011;68252;44.944;20.218;2024-03-17T07:41:00;9.25;;;4.55;;
78728;SDS011;68252;44.944;20.218;2024-03-17T07:43:27;9.20;;;4.10;;
78728;SDS011;68252;44.944;20.218;2024-03-17T07:46:12;6.38;;;4.00;;
78728;SDS011;68252;44.944;20.218;2024-03-17T07:48:39;8.85;;;4.03;;
78728;SDS011;68252;44.944;20.218;2024-03-17T07:51:09;8.85;;;4.10;;
78728;SDS011;68252;44.944;20.218;2024-03-17T07:53:37;7.20;;;3.53;;
78728;SDS011;68252;44.944;20.218;2024-03-17T07:56:06;8.80;;;3.70;;
78728;SDS011;68252;44.944;20.218;2024-03-17T07:58:34;6.07;;;3.38;;
78728;SDS011;68252;44.944;20.218;2024-03-17T08:01:07;6.70;;;3.63;;
78728;SDS011;68252;44.944;20.218;2024-03-17T08:03:35;5.05;;;3.63;;
78728;SDS011;68252;44.944;20.218;2024-03-17T08:06:02;5.47;;;3.35;;
78728;SDS011;68252;44.944;20.218;2024-03-17T08:08:29;6.60;;;3.40;;
78728;SDS011;68252;44.944;20.218;2024-03-17T08:10:56;5.65;;;3.50;;
78728;SDS011;68252;44.944;20.218;2024-03-17T08:13:22;5.88;;;3.45;;
78728;SDS011;68252;44.944;20.218;2024-03-17T08:15:58;4.05;;;2.72;;
78728;SDS011;68252;44.944;20.218;2024-03-17T08:18:25;3.67;;;2.70;;
78728;SDS011;68252;44.944;20.218;2024-03-17T08:20:52;9.07;;;2.78;;
78728;SDS011;68252;44.944;20.218;2024-03-17T08:23:19;7.85;;;3.15;;
78728;SDS011;68252;44.944;20.218;2024-03-17T08:25:58;6.93;;;2.63;;
78728;SDS011;68252;44.944;20.218;2024-03-17T08:28:25;4.05;;;2.58;;
78728;SDS011;68252;44.944;20.218;2024-03-17T08:30:56;5.32;;;2.83;;
78728;SDS011;68252;44.944;20.218;2024-03-17T08:33:23;3.30;;;2.40;;
78728;SDS011;68252;44.944;20.218;2024-03-17T08:35:52;5.05;;;2.50;;
78728;SDS011;68252;44.944;20.218;2024-03-17T08:38:19;6.03;;;2.67;;
78728;SDS011;68252;44.944;20.218;2024-03-17T08:40:46;4.32;;;2.47;;
78728;SDS011;68252;44.944;20.218;2024-03-17T08:43:12;4.03;;;2.80;;
78728;SDS011;68252;44.944;20.218;2024-03-17T08:45:38;7.82;;;3.33;;
78728;SDS011;68252;44.944;20.218;2024-03-17T08:48:04;6.80;;;2.70;;
78728;SDS011;68252;44.944;20.218;2024-03-17T08:50:30;4.32;;;2.90;;
78728;SDS011;68252;44.944;20.218;2024-03-17T08:52:59;3.55;;;2.60;;
78728;SDS011;68252;44.944;20.218;2024-03-17T08:55:25;3.28;;;2.60;;
78728;SDS011;68252;44.944;20.218;2024-03-17T08:57:51;7.95;;;2.72;;
78728;SDS011;68252;44.944;20.218;2024-03-17T09:00:17;4.05;;;2.53;;
78728;SDS011;68252;44.944;20.218;2024-03-17T09:02:43;4.60;;;2.63;;
78728;SDS011;68252;44.944;20.218;2024-03-17T09:05:09;4.03;;;2.28;;
78728;SDS011;68252;44.944;20.218;2024-03-17T09:07:37;3.30;;;2.33;;
78728;SDS011;68252;44.944;20.218;2024-03-17T09:10:04;3.63;;;2.20;;
78728;SDS011;68252;44.944;20.218;2024-03-17T09:12:30;3.13;;;1.98;;
78728;SDS011;68252;44.944;20.218;2024-03-17T09:14:57;4.85;;;2.05;;
78728;SDS011;68252;44.944;20.218;2024-03-17T09:17:23;7.95;;;2.38;;
78728;SDS011;68252;44.944;20.218;2024-03-17T09:19:49;3.13;;;2.10;;
78728;SDS011;68252;44.944;20.218;2024-03-17T09:22:15;3.92;;;1.90;;
78728;SDS011;68252;44.944;20.218;2024-03-17T09:24:41;5.88;;;2.35;;
78728;SDS011;68252;44.944;20.218;2024-03-17T09:27:07;6.90;;;2.22;;
78728;SDS011;68252;44.944;20.218;2024-03-17T09:29:34;4.25;;;2.25;;
78728;SDS011;68252;44.944;20.218;2024-03-17T09:32:00;4.07;;;2.03;;
78728;SDS011;68252;44.944;20.218;2024-03-17T09:34:26;3.63;;;2.55;;
78728;SDS011;68252;44.944;20.218;2024-03-17T09:36:52;4.75;;;2.22;;
78728;SDS011;68252;44.944;20.218;2024-03-17T09:39:18;6.65;;;1.60;;
78728;SDS011;68252;44.944;20.218;2024-03-17T09:41:44;7.72;;;1.98;;
78728;SDS011;68252;44.944;20.218;2024-03-17T09:44:12;3.28;;;2.22;;
78728;SDS011;68252;44.944;20.218;2024-03-17T09:46:38;5.10;;;1.58;;
78728;SDS011;68252;44.944;20.218;2024-03-17T09:49:08;6.07;;;2.03;;
78728;SDS011;68252;44.944;20.218;2024-03-17T09:51:35;6.65;;;2.78;;
78728;SDS011;68252;44.944;20.218;2024-03-17T09:54:17;3.80;;;2.20;;
78728;SDS011;68252;44.944;20.218;2024-03-17T09:56:47;4.18;;;1.98;;
78728;SDS011;68252;44.944;20.218;2024-03-17T09:59:13;2.72;;;1.80;;
78728;SDS011;68252;44.944;20.218;2024-03-17T10:01:39;4.85;;;2.00;;
78728;SDS011;68252;44.944;20.218;2024-03-17T10:04:07;5.05;;;1.77;;
78728;SDS011;68252;44.944;20.218;2024-03-17T10:06:35;3.80;;;1.70;;
78728;SDS011;68252;44.944;20.218;2024-03-17T10:09:10;5.45;;;2.05;;
78728;SDS011;68252;44.944;20.218;2024-03-17T10:11:46;5.35;;;1.77;;
78728;SDS011;68252;44.944;20.218;2024-03-17T10:14:12;13.27;;;2.70;;
78728;SDS011;68252;44.944;20.218;2024-03-17T10:16:41;4.55;;;2.28;;
78728;SDS011;68252;44.944;20.218;2024-03-17T10:21:38;7.22;;;2.75;;
78728;SDS011;68252;44.944;20.218;2024-03-17T10:24:11;6.05;;;3.38;;
78728;SDS011;68252;44.944;20.218;2024-03-17T10:29:04;11.82;;;3.38;;
78728;SDS011;68252;44.944;20.218;2024-03-17T10:31:31;3.85;;;2.65;;
78728;SDS011;68252;44.944;20.218;2024-03-17T10:34:03;8.10;;;2.97;;
78728;SDS011;68252;44.944;20.218;2024-03-17T10:36:29;10.98;;;2.10;;
78728;SDS011;68252;44.944;20.218;2024-03-17T10:38:55;5.22;;;2.70;;
78728;SDS011;68252;44.944;20.218;2024-03-17T10:41:21;3.17;;;1.83;;
78728;SDS011;68252;44.944;20.218;2024-03-17T10:43:49;3.50;;;2.70;;
78728;SDS011;68252;44.944;20.218;2024-03-17T10:46:15;5.53;;;2.63;;
78728;SDS011;68252;44.944;20.218;2024-03-17T10:48:42;2.63;;;2.10;;
78728;SDS011;68252;44.944;20.218;2024-03-17T10:51:13;3.97;;;2.30;;
78728;SDS011;68252;44.944;20.218;2024-03-17T10:53:41;7.25;;;2.75;;
78728;SDS011;68252;44.944;20.218;2024-03-17T10:56:08;3.80;;;2.80;;
78728;SDS011;68252;44.944;20.218;2024-03-17T10:58:36;8.20;;;3.90;;
78728;SDS011;68252;44.944;20.218;2024-03-17T11:01:06;4.65;;;2.85;;
78728;SDS011;68252;44.944;20.218;2024-03-17T11:03:35;17.88;;;6.78;;
78728;SDS011;68252;44.944;20.218;2024-03-17T11:06:02;8.93;;;4.43;;
78728;SDS011;68252;44.944;20.218;2024-03-17T11:08:30;5.35;;;3.58;;
78728;SDS011;68252;44.944;20.218;2024-03-17T11:10:58;7.50;;;2.50;;
78728;SDS011;68252;44.944;20.218;2024-03-17T11:13:31;4.93;;;2.70;;
78728;SDS011;68252;44.944;20.218;2024-03-17T11:15:58;4.55;;;3.15;;
78728;SDS011;68252;44.944;20.218;2024-03-17T11:18:31;5.95;;;3.20;;
78728;SDS011;68252;44.944;20.218;2024-03-17T11:23:57;4.68;;;3.25;;
78728;SDS011;68252;44.944;20.218;2024-03-17T11:26:26;11.10;;;3.80;;
78728;SDS011;68252;44.944;20.218;2024-03-17T11:28:53;9.80;;;3.40;;
78728;SDS011;68252;44.944;20.218;2024-03-17T11:34:26;11.23;;;3.63;;
78728;SDS011;68252;44.944;20.218;2024-03-17T11:36:56;5.32;;;3.10;;
78728;SDS011;68252;44.944;20.218;2024-03-17T11:42:07;9.63;;;3.88;;
78728;SDS011;68252;44.944;20.218;2024-03-17T11:44:41;8.70;;;5.00;;
78728;SDS011;68252;44.944;20.218;2024-03-17T11:47:08;11.85;;;4.22;;
78728;SDS011;68252;44.944;20.218;2024-03-17T11:49:35;4.88;;;2.83;;
78728;SDS011;68252;44.944;20.218;2024-03-17T11:54:34;4.43;;;2.85;;
78728;SDS011;68252;44.944;20.218;2024-03-17T11:57:04;4.47;;;3.40;;
78728;SDS011;68252;44.944;20.218;2024-03-17T11:59:35;4.32;;;3.10;;
78728;SDS011;68252;44.944;20.218;2024-03-17T12:02:02;8.48;;;3.30;;
78728;SDS011;68252;44.944;20.218;2024-03-17T12:04:38;7.05;;;3.40;;
78728;SDS011;68252;44.944;20.218;2024-03-17T12:07:04;6.40;;;3.67;;
78728;SDS011;68252;44.944;20.218;2024-03-17T12:09:36;8.50;;;3.55;;
78728;SDS011;68252;44.944;20.218;2024-03-17T12:12:03;4.18;;;3.05;;
78728;SDS011;68252;44.944;20.218;2024-03-17T12:14:30;6.10;;;3.55;;
78728;SDS011;68252;44.944;20.218;2024-03-17T12:16:57;10.68;;;4.18;;
78728;SDS011;68252;44.944;20.218;2024-03-17T12:19:23;4.72;;;3.63;;
78728;SDS011;68252;44.944;20.218;2024-03-17T12:21:53;7.57;;;3.85;;
78728;SDS011;68252;44.944;20.218;2024-03-17T12:24:24;7.75;;;4.30;;
78728;SDS011;68252;44.944;20.218;2024-03-17T12:26:52;7.18;;;3.53;;
78728;SDS011;68252;44.944;20.218;2024-03-17T12:31:58;7.63;;;3.90;;
78728;SDS011;68252;44.944;20.218;2024-03-17T12:34:25;5.13;;;3.38;;
78728;SDS011;68252;44.944;20.218;2024-03-17T12:36:52;9.25;;;3.35;;
78728;SDS011;68252;44.944;20.218;2024-03-17T12:39:19;3.92;;;2.20;;
78728;SDS011;68252;44.944;20.218;2024-03-17T12:41:46;2.83;;;1.85;;
78728;SDS011;68252;44.944;20.218;2024-03-17T12:44:27;8.23;;;2.45;;
78728;SDS011;68252;44.944;20.218;2024-03-17T12:46:59;12.88;;;2.78;;
78728;SDS011;68252;44.944;20.218;2024-03-17T12:49:26;4.13;;;2.42;;
78728;SDS011;68252;44.944;20.218;2024-03-17T12:51:52;4.18;;;2.47;;
78728;SDS011;68252;44.944;20.218;2024-03-17T12:54:22;3.38;;;2.40;;
78728;SDS011;68252;44.944;20.218;2024-03-17T12:56:49;6.35;;;3.10;;
78728;SDS011;68252;44.944;20.218;2024-03-17T12:59:40;8.50;;;2.60;;
78728;SDS011;68252;44.944;20.218;2024-03-17T13:02:25;6.32;;;2.92;;
78728;SDS011;68252;44.944;20.218;2024-03-17T13:05:06;9.50;;;2.85;;
78728;SDS011;68252;44.944;20.218;2024-03-17T13:07:32;8.07;;;1.92;;
78728;SDS011;68252;44.944;20.218;2024-03-17T13:09:59;7.03;;;2.60;;
78728;SDS011;68252;44.944;20.218;2024-03-17T13:12:25;4.50;;;2.60;;
78728;SDS011;68252;44.944;20.218;2024-03-17T13:14:52;6.28;;;3.10;;
78728;SDS011;68252;44.944;20.218;2024-03-17T13:17:18;7.03;;;3.42;;
78728;SDS011;68252;44.944;20.218;2024-03-17T13:19:47;6.28;;;3.67;;
78728;SDS011;68252;44.944;20.218;2024-03-17T13:24:39;9.48;;;4.95;;
78728;SDS011;68252;44.944;20.218;2024-03-17T13:27:05;5.78;;;3.22;;
78728;SDS011;68252;44.944;20.218;2024-03-17T13:29:33;7.07;;;3.45;;
78728;SDS011;68252;44.944;20.218;2024-03-17T13:32:03;9.27;;;2.75;;
78728;SDS011;68252;44.944;20.218;2024-03-17T13:34:30;5.30;;;2.30;;
78728;SDS011;68252;44.944;20.218;2024-03-17T13:36:56;3.10;;;2.03;;
78728;SDS011;68252;44.944;20.218;2024-03-17T13:39:22;5.30;;;2.30;;
78728;SDS011;68252;44.944;20.218;2024-03-17T13:41:49;3.80;;;2.50;;
78728;SDS011;68252;44.944;20.218;2024-03-17T13:44:18;5.95;;;2.42;;
78728;SDS011;68252;44.944;20.218;2024-03-17T13:46:44;7.22;;;3.55;;
78728;SDS011;68252;44.944;20.218;2024-03-17T13:49:10;8.50;;;2.85;;
78728;SDS011;68252;44.944;20.218;2024-03-17T13:51:36;6.78;;;2.40;;
78728;SDS011;68252;44.944;20.218;2024-03-17T13:54:02;13.73;;;4.60;;
78728;SDS011;68252;44.944;20.218;2024-03-17T13:56:28;10.40;;;2.95;;
78728;SDS011;68252;44.944;20.218;2024-03-17T13:58:55;8.75;;;4.43;;
78728;SDS011;68252;44.944;20.218;2024-03-17T14:01:21;6.45;;;3.05;;
78728;SDS011;68252;44.944;20.218;2024-03-17T14:03:47;4.03;;;2.30;;
78728;SDS011;68252;44.944;20.218;2024-03-17T14:06:13;5.43;;;1.80;;
78728;SDS011;68252;44.944;20.218;2024-03-17T14:08:39;4.03;;;2.13;;
78728;SDS011;68252;44.944;20.218;2024-03-17T14:11:05;3.75;;;2.20;;
78728;SDS011;68252;44.944;20.218;2024-03-17T14:13:31;5.00;;;2.60;;
78728;SDS011;68252;44.944;20.218;2024-03-17T14:15:57;5.68;;;2.90;;
78728;SDS011;68252;44.944;20.218;2024-03-17T14:18:24;6.75;;;2.90;;
78728;SDS011;68252;44.944;20.218;2024-03-17T14:20:50;5.00;;;1.92;;
78728;SDS011;68252;44.944;20.218;2024-03-17T14:23:17;4.28;;;1.95;;
78728;SDS011;68252;44.944;20.218;2024-03-17T14:25:43;3.65;;;1.95;;
78728;SDS011;68252;44.944;20.218;2024-03-17T14:28:09;3.97;;;2.42;;
78728;SDS011;68252;44.944;20.218;2024-03-17T14:30:35;66.88;;;27.58;;
78728;SDS011;68252;44.944;20.218;2024-03-17T14:33:01;30.98;;;12.82;;
78728;SDS011;68252;44.944;20.218;2024-03-17T14:35:31;6.60;;;2.88;;
78728;SDS011;68252;44.944;20.218;2024-03-17T14:37:58;6.43;;;2.45;;
78728;SDS011;68252;44.944;20.218;2024-03-17T14:40:24;5.43;;;3.13;;
78728;SDS011;68252;44.944;20.218;2024-03-17T14:42:53;2.20;;;1.63;;
78728;SDS011;68252;44.944;20.218;2024-03-17T14:45:20;7.25;;;3.38;;